createdAt,value
2023-05-20T00:03:35.959Z,68.51
2023-05-20T00:06:04.652Z,68.80
2023-05-20T00:08:32.733Z,68.63
2023-05-20T00:11:01.082Z,68.03
2023-05-20T00:13:29.470Z,67.53
2023-05-20T00:15:57.564Z,67.44
2023-05-20T00:18:25.798Z,67.50
2023-05-20T00:20:53.930Z,66.80
2023-05-20T00:23:22.423Z,66.65
2023-05-20T00:25:51.163Z,66.99
2023-05-20T00:28:19.239Z,66.45
2023-05-20T00:30:47.391Z,66.40
2023-05-20T00:33:16.240Z,66.64
2023-05-20T00:35:44.869Z,66.38
2023-05-20T00:38:13.097Z,66.28
2023-05-20T00:40:41.507Z,66.46
2023-05-20T00:43:10.008Z,66.46
2023-05-20T00:45:38.827Z,66.19
2023-05-20T00:48:07.754Z,65.74
2023-05-20T00:50:36.775Z,66.19
2023-05-20T00:53:06.390Z,66.07
2023-05-20T00:55:35.687Z,65.70
2023-05-20T00:58:04.377Z,65.88
2023-05-20T01:00:32.837Z,66.04
2023-05-20T01:03:01.354Z,65.93
2023-05-20T01:05:29.827Z,66.18
2023-05-20T01:07:58.184Z,65.88
2023-05-20T01:10:29.302Z,65.88
2023-05-20T01:13:01.914Z,66.33
2023-05-20T01:15:32.079Z,66.54
2023-05-20T01:18:03.613Z,65.99
2023-05-20T01:20:33.410Z,66.45
2023-05-20T01:23:02.064Z,65.77
2023-05-20T01:25:30.381Z,65.91
2023-05-20T01:27:58.868Z,66.10
2023-05-20T01:30:33.353Z,66.41
2023-05-20T01:33:11.005Z,66.47
2023-05-20T01:35:41.572Z,66.83
2023-05-20T01:38:10.075Z,67.08
2023-05-20T01:40:39.522Z,67.28
2023-05-20T01:43:08.470Z,66.98
2023-05-20T01:45:36.910Z,67.09
2023-05-20T01:48:05.828Z,67.20
2023-05-20T01:50:34.133Z,66.83
2023-05-20T01:53:02.243Z,66.70
2023-05-20T01:55:30.629Z,66.04
2023-05-20T01:57:58.856Z,66.87
2023-05-20T02:00:27.038Z,66.53
2023-05-20T02:02:55.586Z,66.24
2023-05-20T02:05:24.252Z,66.57
2023-05-20T02:07:52.640Z,66.10
2023-05-20T02:10:21.157Z,66.51
2023-05-20T02:12:49.682Z,66.21
2023-05-20T02:15:18.363Z,66.36
2023-05-20T02:17:47.528Z,67.02
2023-05-20T02:20:15.789Z,66.76
2023-05-20T02:22:43.965Z,67.20
2023-05-20T02:25:12.684Z,67.06
2023-05-20T02:27:41.076Z,67.09
2023-05-20T02:30:09.645Z,67.44
2023-05-20T02:32:37.907Z,67.26
2023-05-20T02:35:06.443Z,67.18
2023-05-20T02:37:34.724Z,66.74
2023-05-20T02:40:03.076Z,65.98
2023-05-20T02:42:31.380Z,65.73
2023-05-20T02:44:59.535Z,65.92
2023-05-20T02:47:27.933Z,66.26
2023-05-20T02:49:56.576Z,66.12
2023-05-20T02:52:24.728Z,66.34
2023-05-20T02:54:53.217Z,66.49
2023-05-20T02:57:21.624Z,65.93
2023-05-20T02:59:49.904Z,65.61
2023-05-20T03:02:18.293Z,65.64
2023-05-20T03:04:47.270Z,65.07
2023-05-20T03:07:15.636Z,65.09
2023-05-20T03:09:44.024Z,64.70
2023-05-20T03:12:12.574Z,64.64
2023-05-20T03:14:40.862Z,64.74
2023-05-20T03:17:10.071Z,64.73
2023-05-20T03:19:38.214Z,64.30
2023-05-20T03:22:06.505Z,63.89
2023-05-20T03:24:35.139Z,64.08
2023-05-20T03:27:03.268Z,63.60
2023-05-20T03:29:31.576Z,63.34
2023-05-20T03:31:59.941Z,63.46
2023-05-20T03:34:28.408Z,63.49
2023-05-20T03:36:56.749Z,63.13
2023-05-20T03:39:24.966Z,63.19
2023-05-20T03:41:53.197Z,63.30
2023-05-20T03:44:21.426Z,62.99
2023-05-20T03:46:49.776Z,62.82
2023-05-20T03:49:19.900Z,62.35
2023-05-20T03:51:48.656Z,63.13
2023-05-20T03:54:16.896Z,62.67
2023-05-20T03:56:45.162Z,62.81
2023-05-20T03:59:13.354Z,62.87
2023-05-20T04:01:41.632Z,62.67
2023-05-20T04:04:10.901Z,63.21
2023-05-20T04:06:39.310Z,62.75
2023-05-20T04:09:07.739Z,62.59
2023-05-20T04:11:36.196Z,62.79
2023-05-20T04:14:04.458Z,62.54
2023-05-20T04:16:33.234Z,62.59
2023-05-20T04:19:01.664Z,62.15
2023-05-20T04:21:30.132Z,62.29
2023-05-20T04:23:59.078Z,61.70
2023-05-20T04:26:27.828Z,62.29
2023-05-20T04:28:56.446Z,61.98
2023-05-20T04:31:25.903Z,62.10
2023-05-20T04:33:54.887Z,61.92
2023-05-20T04:36:23.335Z,62.39
2023-05-20T04:38:51.712Z,62.45
2023-05-20T04:41:19.908Z,62.08
2023-05-20T04:43:48.059Z,61.71
2023-05-20T04:46:17.168Z,61.60
2023-05-20T04:48:45.371Z,62.60
2023-05-20T04:51:13.721Z,62.18
2023-05-20T04:53:43.166Z,61.91
2023-05-20T04:56:12.534Z,62.01
2023-05-20T04:58:40.753Z,62.01
2023-05-20T05:01:09.235Z,61.65
2023-05-20T05:03:37.512Z,61.58
2023-05-20T05:06:05.953Z,61.97
2023-05-20T05:08:34.124Z,62.19
2023-05-20T05:11:05.237Z,62.03
2023-05-20T05:13:33.964Z,61.46
2023-05-20T05:16:03.473Z,61.90
2023-05-20T05:18:31.750Z,61.89
2023-05-20T05:21:02.847Z,61.63
2023-05-20T05:23:32.244Z,61.96
2023-05-20T05:26:00.750Z,62.10
2023-05-20T05:28:29.469Z,61.85
2023-05-20T05:30:57.661Z,61.29
2023-05-20T05:33:26.394Z,61.53
2023-05-20T05:35:54.892Z,61.83
2023-05-20T05:38:23.287Z,61.59
2023-05-20T05:40:51.708Z,61.59
2023-05-20T05:43:20.047Z,61.65
2023-05-20T05:45:48.224Z,61.60
2023-05-20T05:48:16.454Z,61.41
2023-05-20T05:50:46.613Z,61.32
2023-05-20T05:53:14.753Z,60.94
2023-05-20T05:55:42.950Z,60.92
2023-05-20T05:58:11.473Z,60.43
2023-05-20T06:00:39.669Z,60.46
2023-05-20T06:03:08.089Z,60.87
2023-05-20T06:05:36.659Z,61.09
2023-05-20T06:08:05.666Z,61.22
2023-05-20T06:10:34.291Z,60.95
2023-05-20T06:13:02.445Z,60.23
2023-05-20T06:15:30.681Z,60.56
2023-05-20T06:17:59.125Z,60.17
2023-05-20T06:20:27.647Z,60.12
2023-05-20T06:22:56.356Z,60.12
2023-05-20T06:25:25.358Z,60.02
2023-05-20T06:27:54.672Z,59.47
2023-05-20T06:30:23.040Z,59.74
2023-05-20T06:32:51.329Z,59.39
2023-05-20T06:35:20.172Z,59.01
2023-05-20T06:37:49.166Z,58.69
2023-05-20T06:40:19.152Z,58.33
2023-05-20T06:42:47.672Z,58.18
2023-05-20T06:45:16.769Z,57.81
2023-05-20T06:47:45.845Z,57.75
2023-05-20T06:50:14.033Z,57.63
2023-05-20T06:52:42.149Z,57.25
2023-05-20T06:55:10.655Z,56.96
2023-05-20T06:57:39.371Z,56.58
2023-05-20T07:00:09.154Z,56.56
2023-05-20T07:02:37.428Z,56.37
2023-05-20T07:05:06.107Z,56.26
2023-05-20T07:07:34.252Z,55.47
2023-05-20T07:10:02.442Z,55.24
2023-05-20T07:12:30.627Z,55.19
2023-05-20T07:14:58.837Z,55.09
2023-05-20T07:17:27.552Z,54.91
2023-05-20T07:19:56.656Z,54.78
2023-05-20T07:22:25.033Z,54.17
2023-05-20T07:24:53.214Z,53.85
2023-05-20T07:27:22.698Z,53.69
2023-05-20T07:29:51.456Z,53.27
2023-05-20T07:32:20.758Z,52.80
2023-05-20T07:34:49.062Z,52.76
2023-05-20T07:37:17.222Z,53.00
2023-05-20T07:39:45.932Z,53.01
2023-05-20T07:42:16.667Z,53.08
2023-05-20T07:44:45.556Z,52.91
2023-05-20T07:47:14.264Z,53.02
2023-05-20T07:49:42.678Z,52.73
2023-05-20T07:52:11.634Z,52.63
2023-05-20T07:54:39.730Z,52.55
2023-05-20T07:57:08.151Z,52.46
2023-05-20T07:59:36.291Z,52.39
2023-05-20T08:02:05.072Z,52.08
2023-05-20T08:04:33.559Z,51.68
2023-05-20T08:07:03.815Z,51.99
2023-05-20T08:09:34.578Z,52.32
2023-05-20T08:12:03.756Z,52.19
2023-05-20T08:14:31.997Z,52.80
2023-05-20T08:17:00.554Z,52.73
2023-05-20T08:19:28.914Z,53.13
2023-05-20T08:21:57.164Z,53.36
2023-05-20T08:24:25.715Z,53.41
2023-05-20T08:26:53.887Z,53.38
2023-05-20T08:29:22.146Z,53.22
2023-05-20T08:31:50.386Z,52.90
2023-05-20T08:34:21.573Z,52.10
2023-05-20T08:36:49.778Z,52.05
2023-05-20T08:39:17.870Z,52.52
2023-05-20T08:41:47.572Z,52.68
2023-05-20T08:44:18.238Z,52.53
2023-05-20T08:46:47.731Z,52.60
2023-05-20T08:49:20.191Z,52.79
2023-05-20T08:51:48.400Z,52.44
2023-05-20T08:54:17.108Z,52.37
2023-05-20T08:56:45.536Z,52.51
2023-05-20T08:59:14.794Z,52.53
2023-05-20T09:01:44.741Z,51.88
2023-05-20T09:04:13.755Z,52.45
2023-05-20T09:06:46.808Z,52.32
2023-05-20T09:09:16.050Z,52.13
2023-05-20T09:11:44.314Z,52.01
2023-05-20T09:14:12.904Z,51.74
2023-05-20T09:16:41.626Z,52.20
2023-05-20T09:19:10.956Z,52.23
2023-05-20T09:21:41.906Z,52.07
2023-05-20T09:24:10.605Z,51.70
2023-05-20T09:26:38.994Z,51.08
2023-05-20T09:29:07.586Z,50.03
2023-05-20T09:31:37.128Z,48.55
2023-05-20T09:34:05.802Z,47.69
2023-05-20T09:36:35.629Z,48.06
2023-05-20T09:39:04.518Z,47.44
2023-05-20T09:41:56.001Z,48.03
2023-05-20T09:44:24.859Z,47.31
2023-05-20T09:46:54.405Z,48.10
2023-05-20T09:49:25.317Z,48.88
2023-05-20T09:51:54.052Z,49.41
2023-05-20T09:54:23.785Z,49.29
2023-05-20T09:56:53.909Z,48.69
2023-05-20T09:59:23.822Z,48.19
2023-05-20T10:01:51.989Z,47.88
2023-05-20T10:04:21.568Z,47.84
2023-05-20T10:07:33.972Z,48.13
2023-05-20T10:10:31.012Z,48.01
2023-05-20T10:13:13.363Z,47.57
2023-05-20T10:16:10.032Z,47.39
2023-05-20T10:18:59.182Z,47.16
2023-05-20T10:21:27.763Z,46.58
2023-05-20T10:24:06.687Z,46.44
2023-05-20T10:26:41.045Z,46.09
2023-05-20T10:29:20.012Z,46.11
2023-05-20T10:31:53.158Z,46.63
2023-05-20T10:34:23.527Z,47.00
2023-05-20T10:36:59.491Z,47.32
2023-05-20T10:39:32.413Z,47.38
2023-05-20T10:42:11.605Z,47.39
2023-05-20T10:44:45.597Z,47.37
2023-05-20T10:49:46.851Z,47.25
2023-05-20T10:52:17.097Z,46.33
2023-05-20T10:54:55.834Z,46.71
2023-05-20T10:57:27.102Z,47.16
2023-05-20T10:59:58.817Z,46.98
2023-05-20T11:02:28.019Z,47.40
2023-05-20T11:04:57.100Z,47.36
2023-05-20T11:07:31.256Z,47.48
2023-05-20T11:09:59.809Z,47.66
2023-05-20T11:12:28.475Z,47.25
2023-05-20T11:14:59.869Z,47.08
2023-05-20T11:17:28.423Z,47.62
2023-05-20T11:19:59.761Z,48.27
2023-05-20T11:22:28.027Z,48.60
2023-05-20T11:24:56.443Z,48.87
2023-05-20T11:27:24.941Z,48.59
2023-05-20T11:29:53.359Z,48.63
2023-05-20T11:32:21.606Z,48.82
2023-05-20T11:34:54.375Z,48.29
2023-05-20T11:37:24.395Z,48.23
2023-05-20T11:40:07.233Z,47.88
2023-05-20T11:42:37.014Z,48.05
2023-05-20T11:45:05.655Z,48.71
2023-05-20T11:47:34.446Z,48.32
2023-05-20T11:50:04.251Z,47.12
2023-05-20T11:52:34.518Z,46.35
2023-05-20T11:55:03.978Z,46.22
2023-05-20T11:57:32.162Z,45.64
2023-05-20T12:00:01.009Z,45.78
2023-05-20T12:02:29.472Z,46.04
2023-05-20T12:04:58.147Z,46.75
2023-05-20T12:07:26.642Z,46.82
2023-05-20T12:09:54.844Z,46.91
2023-05-20T12:12:22.969Z,47.02
2023-05-20T12:14:51.393Z,46.58
2023-05-20T12:17:19.786Z,46.76
2023-05-20T12:19:49.643Z,45.60
2023-05-20T12:22:17.920Z,46.14
2023-05-20T12:24:46.038Z,46.57
2023-05-20T12:27:14.361Z,46.86
2023-05-20T12:29:42.835Z,46.74
2023-05-20T12:32:11.191Z,46.12
2023-05-20T12:34:39.661Z,46.16
2023-05-20T12:37:08.000Z,45.85
2023-05-20T12:39:36.261Z,45.33
2023-05-20T12:42:04.587Z,44.57
2023-05-20T12:44:33.389Z,43.80
2023-05-20T12:47:01.570Z,44.08
2023-05-20T12:49:29.982Z,44.01
2023-05-20T12:51:59.888Z,44.72
2023-05-20T12:54:29.856Z,45.42
2023-05-20T12:56:58.848Z,45.37
2023-05-20T12:59:27.074Z,45.99
2023-05-20T13:01:55.398Z,46.02
2023-05-20T13:04:24.100Z,46.49
2023-05-20T13:06:52.710Z,46.77
2023-05-20T13:09:21.159Z,47.25
2023-05-20T13:11:49.980Z,47.63
2023-05-20T13:14:18.365Z,48.06
2023-05-20T13:16:46.954Z,48.60
2023-05-20T13:19:16.287Z,48.46
2023-05-20T13:21:44.506Z,47.81
2023-05-20T13:24:12.757Z,47.58
2023-05-20T13:26:41.170Z,47.58
2023-05-20T13:29:09.552Z,47.10
2023-05-20T13:31:38.409Z,47.56
2023-05-20T13:34:06.804Z,47.55
2023-05-20T13:36:34.891Z,46.91
2023-05-20T13:39:02.984Z,47.44
2023-05-20T13:41:31.301Z,47.85
2023-05-20T13:43:59.523Z,47.92
2023-05-20T13:46:27.790Z,47.52
2023-05-20T13:48:56.118Z,47.02
2023-05-20T13:51:24.371Z,48.95
2023-05-20T13:53:52.464Z,50.01
2023-05-20T13:56:21.088Z,50.85
2023-05-20T13:58:49.327Z,51.68
2023-05-20T14:01:17.550Z,52.23
2023-05-20T14:03:46.012Z,52.53
2023-05-20T14:06:14.512Z,52.75
2023-05-20T14:08:42.823Z,53.52
2023-05-20T14:11:11.496Z,53.84
2023-05-20T14:13:41.142Z,54.18
2023-05-20T14:16:09.289Z,54.67
2023-05-20T14:18:38.009Z,54.89
2023-05-20T14:21:06.400Z,55.27
2023-05-20T14:23:34.490Z,55.46
2023-05-20T14:26:02.905Z,55.41
2023-05-20T14:28:31.078Z,55.89
2023-05-20T14:30:59.224Z,56.09
2023-05-20T14:33:28.369Z,56.01
2023-05-20T14:35:57.181Z,55.78
2023-05-20T14:38:25.393Z,55.89
2023-05-20T14:40:53.878Z,55.44
2023-05-20T14:43:22.255Z,55.04
2023-05-20T14:45:50.670Z,54.58
2023-05-20T14:48:19.109Z,53.50
2023-05-20T14:50:48.992Z,53.34
2023-05-20T14:53:18.141Z,52.61
2023-05-20T14:55:48.096Z,52.24
2023-05-20T14:58:16.377Z,52.11
2023-05-20T15:00:44.604Z,52.04
2023-05-20T15:03:12.966Z,51.31
2023-05-20T15:05:41.335Z,51.18
2023-05-20T15:08:09.571Z,51.05
2023-05-20T15:10:38.345Z,51.19
2023-05-20T15:13:06.741Z,50.81
2023-05-20T15:15:34.921Z,50.23
2023-05-20T15:18:03.386Z,49.93
2023-05-20T15:20:31.663Z,49.50
2023-05-20T15:23:01.058Z,48.79
2023-05-20T15:25:29.441Z,48.26
2023-05-20T15:27:57.604Z,48.03
2023-05-20T15:30:25.763Z,47.99
2023-05-20T15:32:54.271Z,48.46
2023-05-20T15:35:22.624Z,49.01
2023-05-20T15:37:50.825Z,49.40
2023-05-20T15:40:19.103Z,49.57
2023-05-20T15:42:47.265Z,50.03
2023-05-20T15:45:15.597Z,50.77
2023-05-20T15:47:44.740Z,51.94
2023-05-20T15:50:13.032Z,52.44
2023-05-20T15:52:41.938Z,53.00
2023-05-20T15:55:10.589Z,53.54
2023-05-20T15:57:38.880Z,53.97
2023-05-20T16:00:07.744Z,54.20
2023-05-20T16:02:36.795Z,54.52
2023-05-20T16:05:05.762Z,54.80
2023-05-20T16:07:33.876Z,55.00
2023-05-20T16:10:02.463Z,55.41
2023-05-20T16:12:30.715Z,55.57
2023-05-20T16:14:58.949Z,55.81
2023-05-20T16:17:27.493Z,56.22
2023-05-20T16:19:55.732Z,56.39
2023-05-20T16:22:24.018Z,56.08
2023-05-20T16:24:52.654Z,52.92
2023-05-20T16:27:20.883Z,50.68
2023-05-20T16:29:50.429Z,48.99
2023-05-20T16:32:18.966Z,48.33
2023-05-20T16:34:47.170Z,47.80
2023-05-20T16:37:15.720Z,48.12
2023-05-20T16:39:44.462Z,48.30
2023-05-20T16:42:12.570Z,48.77
2023-05-20T16:44:40.754Z,49.78
2023-05-20T16:47:09.460Z,51.02
2023-05-20T16:49:37.880Z,51.80
2023-05-20T16:52:06.835Z,52.37
2023-05-20T16:54:37.953Z,52.97
2023-05-20T16:57:06.139Z,53.66
2023-05-20T16:59:35.304Z,54.16
2023-05-20T17:02:04.370Z,54.50
2023-05-20T17:04:33.210Z,54.63
2023-05-20T17:07:01.879Z,54.83
2023-05-20T17:09:31.277Z,55.00
2023-05-20T17:12:01.466Z,55.29
2023-05-20T17:14:29.881Z,56.10
2023-05-20T17:16:58.547Z,56.43
2023-05-20T17:19:26.921Z,56.57
2023-05-20T17:21:55.225Z,56.38
2023-05-20T17:24:23.565Z,56.50
2023-05-20T17:26:52.047Z,56.45
2023-05-20T17:29:20.460Z,56.31
2023-05-20T17:31:49.243Z,56.23
2023-05-20T17:34:19.482Z,56.53
2023-05-20T17:36:48.529Z,56.49
2023-05-20T17:39:18.236Z,56.56
2023-05-20T17:41:46.521Z,56.40
2023-05-20T17:44:15.290Z,55.84
2023-05-20T17:46:44.235Z,55.79
2023-05-20T17:49:13.338Z,55.50
2023-05-20T17:51:41.935Z,55.29
2023-05-20T17:54:12.303Z,54.84
2023-05-20T17:56:40.951Z,54.44
2023-05-20T17:59:09.006Z,53.61
2023-05-20T18:01:37.550Z,53.46
2023-05-20T18:04:06.441Z,53.13
2023-05-20T18:06:36.452Z,53.07
2023-05-20T18:09:05.187Z,53.42
2023-05-20T18:11:34.257Z,53.30
2023-05-20T18:14:02.804Z,53.03
2023-05-20T18:16:31.705Z,53.17
2023-05-20T18:18:59.982Z,53.26
2023-05-20T18:21:28.367Z,52.83
2023-05-20T18:23:58.184Z,52.32
2023-05-20T18:26:27.759Z,52.77
2023-05-20T18:28:56.013Z,52.71
2023-05-20T18:31:24.550Z,52.72
2023-05-20T18:33:52.893Z,52.62
2023-05-20T18:36:21.663Z,52.46
2023-05-20T18:38:49.959Z,52.78
2023-05-20T18:41:18.665Z,52.52
2023-05-20T18:43:46.920Z,52.50
2023-05-20T18:46:16.187Z,52.69
2023-05-20T18:48:44.861Z,52.73
2023-05-20T18:51:13.057Z,52.55
2023-05-20T18:53:41.412Z,52.45
2023-05-20T18:56:09.551Z,52.56
2023-05-20T18:58:38.148Z,52.49
2023-05-20T19:01:07.052Z,52.44
2023-05-20T19:03:38.659Z,52.37
2023-05-20T19:06:07.156Z,52.40
2023-05-20T19:08:35.365Z,52.84
2023-05-20T19:11:03.633Z,52.63
2023-05-20T19:13:31.957Z,52.40
2023-05-20T19:16:00.733Z,52.51
2023-05-20T19:18:29.190Z,52.52
2023-05-20T19:20:57.493Z,52.48
2023-05-20T19:23:25.689Z,52.55
2023-05-20T19:25:54.150Z,52.50
2023-05-20T19:28:22.473Z,52.45
2023-05-20T19:30:50.819Z,52.68
2023-05-20T19:33:20.931Z,52.90
2023-05-20T19:35:49.395Z,53.33
2023-05-20T19:38:18.393Z,53.47
2023-05-20T19:40:46.914Z,53.56
2023-05-20T19:43:15.362Z,53.82
2023-05-20T19:45:43.787Z,54.01
2023-05-20T19:48:12.319Z,54.29
2023-05-20T19:50:42.912Z,54.52
2023-05-20T19:53:11.130Z,54.91
2023-05-20T19:55:40.597Z,54.54
2023-05-20T19:58:09.434Z,54.47
2023-05-20T20:00:37.951Z,54.79
2023-05-20T20:03:07.694Z,54.91
2023-05-20T20:05:36.134Z,55.10
2023-05-20T20:08:04.867Z,55.09
2023-05-20T20:10:33.093Z,55.08
2023-05-20T20:13:01.829Z,55.32
2023-05-20T20:15:30.182Z,55.17
2023-05-20T20:17:58.919Z,55.36
2023-05-20T20:20:27.197Z,55.40
2023-05-20T20:22:55.397Z,54.99
2023-05-20T20:25:23.523Z,54.72
2023-05-20T20:27:52.108Z,54.11
2023-05-20T20:30:20.535Z,54.20
2023-05-20T20:32:48.739Z,53.99
2023-05-20T20:35:17.177Z,53.82
2023-05-20T20:37:45.443Z,54.16
2023-05-20T20:40:14.136Z,54.18
2023-05-20T20:42:43.230Z,53.97
2023-05-20T20:45:12.157Z,54.11
2023-05-20T20:47:40.506Z,54.47
2023-05-20T20:50:14.770Z,54.78
2023-05-20T20:52:43.205Z,55.00
2023-05-20T20:55:11.474Z,54.98
2023-05-20T20:57:40.162Z,55.31
2023-05-20T21:00:08.858Z,55.56
2023-05-20T21:02:37.254Z,55.75
2023-05-20T21:05:05.917Z,56.04
2023-05-20T21:07:34.502Z,56.05
2023-05-20T21:10:02.696Z,56.27
2023-05-20T21:12:31.020Z,56.36
2023-05-20T21:14:59.201Z,56.39
2023-05-20T21:17:28.026Z,56.61
2023-05-20T21:19:56.371Z,56.79
2023-05-20T21:22:24.618Z,57.05
2023-05-20T21:24:52.893Z,57.03
2023-05-20T21:27:21.307Z,57.30
2023-05-20T21:29:49.536Z,57.59
2023-05-20T21:32:17.801Z,57.64
2023-05-20T21:34:46.214Z,57.93
2023-05-20T21:37:14.469Z,57.95
2023-05-20T21:39:42.792Z,58.20
2023-05-20T21:42:11.298Z,58.28
2023-05-20T21:44:40.002Z,58.43
2023-05-20T21:47:08.145Z,58.49
2023-05-20T21:49:36.402Z,58.66
2023-05-20T21:52:04.820Z,58.84
2023-05-20T21:54:33.020Z,58.89
2023-05-20T21:57:01.477Z,58.84
2023-05-20T21:59:29.950Z,58.82
2023-05-20T22:01:58.449Z,58.84
2023-05-20T22:04:27.309Z,58.95
2023-05-20T22:06:56.394Z,59.07
2023-05-20T22:09:25.048Z,59.14
2023-05-20T22:11:55.236Z,59.28
2023-05-20T22:14:23.350Z,59.30
2023-05-20T22:16:51.557Z,59.55
2023-05-20T22:19:19.833Z,59.31
2023-05-20T22:21:50.523Z,59.43
2023-05-20T22:24:19.533Z,59.55
2023-05-20T22:26:47.825Z,59.68
2023-05-20T22:29:17.553Z,59.78
2023-05-20T22:31:46.222Z,59.87
2023-05-20T22:34:14.758Z,59.94
2023-05-20T22:36:42.917Z,60.02
2023-05-20T22:39:11.374Z,60.07
2023-05-20T22:41:39.585Z,59.97
2023-05-20T22:44:07.784Z,60.09
2023-05-20T22:46:36.120Z,60.11
2023-05-20T22:49:04.330Z,60.28
2023-05-20T22:51:32.830Z,60.34
2023-05-20T22:54:01.012Z,60.49
2023-05-20T22:56:29.276Z,60.66
2023-05-20T22:58:57.340Z,60.68
2023-05-20T23:01:25.808Z,60.76
2023-05-20T23:03:54.217Z,60.90
2023-05-20T23:06:22.662Z,61.04
2023-05-20T23:08:51.151Z,61.01
2023-05-20T23:11:19.705Z,61.13
2023-05-20T23:13:47.907Z,61.32
2023-05-20T23:16:16.151Z,61.47
2023-05-20T23:18:44.480Z,61.75
2023-05-20T23:21:13.455Z,61.59
2023-05-20T23:23:41.606Z,61.74
2023-05-20T23:26:10.002Z,61.90
2023-05-20T23:28:39.678Z,61.83
2023-05-20T23:31:08.164Z,61.89
2023-05-20T23:33:36.674Z,61.84
2023-05-20T23:36:05.359Z,61.94
2023-05-20T23:38:33.528Z,62.04
2023-05-20T23:41:02.303Z,62.01
2023-05-20T23:43:30.570Z,62.10
2023-05-20T23:45:58.781Z,62.27
2023-05-20T23:48:27.545Z,62.22
2023-05-20T23:50:57.544Z,62.11
2023-05-20T23:53:27.481Z,62.27
2023-05-20T23:55:55.915Z,62.28
2023-05-20T23:58:24.190Z,62.31
